<?xml version="1.0" encoding="UTF-8" standalone="no" ?>
<gpx xmlns="http://www.topografix.com/GPX/1/1" xmlns:xsi="http://www.w3.org/2001/XMLSchema-instance" xsi:schemaLocation="http://www.topografix.com/GPX/1/1 http://www.topografix.com/GPX/1/1/gpx.xsd" version="1.1" creator="VisuGPX - https://www.visugpx.com">
  <metadata>
    <name>Rando de l'Estabelle</name>
    <desc><![CDATA[Longue montée sur une piste large, de longs passages en sous bois, singles techniques. Que du plaisir ! ]]></desc>
  </metadata>
  <trk>
    <name><![CDATA[Rando de l'Estabelle 2008 - 25 km - 2711 - UtagawaVTT.com]]></name>
    <trkseg>
      <trkpt lat="43.57283" lon="3.36295">
        <ele>105.847298</ele>
        <time>2008-11-23T08:46:00Z</time>
      </trkpt>
      <trkpt lat="43.57285" lon="3.36293">
        <ele>106.040924</ele>
        <time>2008-11-23T08:46:40Z</time>
      </trkpt>
      <trkpt lat="43.57285" lon="3.36295">
        <ele>105.899788</ele>
        <time>2008-11-23T08:47:38Z</time>
      </trkpt>
      <trkpt lat="43.57287" lon="3.36298">
        <ele>105.88475</ele>
        <time>2008-11-23T08:47:44Z</time>
      </trkpt>
      <trkpt lat="43.57289" lon="3.36347">
        <ele>102.346077</ele>
        <time>2008-11-23T08:47:58Z</time>
      </trkpt>
      <trkpt lat="43.57315" lon="3.3639">
        <ele>100.296249</ele>
        <time>2008-11-23T08:48:12Z</time>
      </trkpt>
      <trkpt lat="43.57362" lon="3.36396">
        <ele>103.701248</ele>
        <time>2008-11-23T08:48:26Z</time>
      </trkpt>
      <trkpt lat="43.5745" lon="3.36368">
        <ele>105.048752</ele>
        <time>2008-11-23T08:48:51Z</time>
      </trkpt>
      <trkpt lat="43.57538" lon="3.36379">
        <ele>108.154877</ele>
        <time>2008-11-23T08:49:15Z</time>
      </trkpt>
      <trkpt lat="43.57613" lon="3.36388">
        <ele>109.533752</ele>
        <time>2008-11-23T08:49:35Z</time>
      </trkpt>
      <trkpt lat="43.57708" lon="3.36405">
        <ele>110.988472</ele>
        <time>2008-11-23T08:50:01Z</time>
      </trkpt>
      <trkpt lat="43.57785" lon="3.36394">
        <ele>112.014999</ele>
        <time>2008-11-23T08:50:22Z</time>
      </trkpt>
      <trkpt lat="43.57854" lon="3.36343">
        <ele>116.025963</ele>
        <time>2008-11-23T08:50:44Z</time>
      </trkpt>
      <trkpt lat="43.57918" lon="3.36289">
        <ele>119.426468</ele>
        <time>2008-11-23T08:51:07Z</time>
      </trkpt>
      <trkpt lat="43.57942" lon="3.36246">
        <ele>121.818115</ele>
        <time>2008-11-23T08:51:19Z</time>
      </trkpt>
      <trkpt lat="43.57927" lon="3.3624">
        <ele>123.972206</ele>
        <time>2008-11-23T08:51:26Z</time>
      </trkpt>
      <trkpt lat="43.57879" lon="3.36229">
        <ele>127.077339</ele>
        <time>2008-11-23T08:51:42Z</time>
      </trkpt>
      <trkpt lat="43.5786" lon="3.36212">
        <ele>128.669998</ele>
        <time>2008-11-23T08:51:49Z</time>
      </trkpt>
      <trkpt lat="43.57856" lon="3.36203">
        <ele>129.414001</ele>
        <time>2008-11-23T08:51:51Z</time>
      </trkpt>
      <trkpt lat="43.57862" lon="3.36188">
        <ele>131.21019</ele>
        <time>2008-11-23T08:51:56Z</time>
      </trkpt>
      <trkpt lat="43.57897" lon="3.36156">
        <ele>136.847656</ele>
        <time>2008-11-23T08:52:16Z</time>
      </trkpt>
      <trkpt lat="43.57937" lon="3.36139">
        <ele>138.477951</ele>
        <time>2008-11-23T08:52:40Z</time>
      </trkpt>
      <trkpt lat="43.57963" lon="3.36092">
        <ele>143.601379</ele>
        <time>2008-11-23T08:52:56Z</time>
      </trkpt>
      <trkpt lat="43.58008" lon="3.36014">
        <ele>145.139755</ele>
        <time>2008-11-23T08:53:18Z</time>
      </trkpt>
      <trkpt lat="43.5804" lon="3.35954">
        <ele>147.536163</ele>
        <time>2008-11-23T08:53:36Z</time>
      </trkpt>
      <trkpt lat="43.58062" lon="3.35905">
        <ele>151.508667</ele>
        <time>2008-11-23T08:53:52Z</time>
      </trkpt>
      <trkpt lat="43.58092" lon="3.35834">
        <ele>159.16568</ele>
        <time>2008-11-23T08:54:15Z</time>
      </trkpt>
      <trkpt lat="43.5813" lon="3.35737">
        <ele>166.202682</ele>
        <time>2008-11-23T08:54:47Z</time>
      </trkpt>
      <trkpt lat="43.5816" lon="3.35662">
        <ele>167.200272</ele>
        <time>2008-11-23T08:55:06Z</time>
      </trkpt>
      <trkpt lat="43.58186" lon="3.356">
        <ele>162.96225</ele>
        <time>2008-11-23T08:55:17Z</time>
      </trkpt>
      <trkpt lat="43.58191" lon="3.35566">
        <ele>164.797424</ele>
        <time>2008-11-23T08:55:21Z</time>
      </trkpt>
      <trkpt lat="43.58197" lon="3.3551">
        <ele>168.647507</ele>
        <time>2008-11-23T08:55:27Z</time>
      </trkpt>
      <trkpt lat="43.58208" lon="3.35484">
        <ele>170.647507</ele>
        <time>2008-11-23T08:55:30Z</time>
      </trkpt>
      <trkpt lat="43.58214" lon="3.35428">
        <ele>172.802307</ele>
        <time>2008-11-23T08:55:37Z</time>
      </trkpt>
      <trkpt lat="43.58199" lon="3.35364">
        <ele>175.400726</ele>
        <time>2008-11-23T08:55:50Z</time>
      </trkpt>
      <trkpt lat="43.58184" lon="3.35272">
        <ele>184.133163</ele>
        <time>2008-11-23T08:56:14Z</time>
      </trkpt>
      <trkpt lat="43.58173" lon="3.35214">
        <ele>187.671066</ele>
        <time>2008-11-23T08:56:36Z</time>
      </trkpt>
      <trkpt lat="43.5816" lon="3.35156">
        <ele>189.038498</ele>
        <time>2008-11-23T08:57:02Z</time>
      </trkpt>
      <trkpt lat="43.58156" lon="3.35115">
        <ele>191.163071</ele>
        <time>2008-11-23T08:57:18Z</time>
      </trkpt>
      <trkpt lat="43.5815" lon="3.35081">
        <ele>191.679047</ele>
        <time>2008-11-23T08:57:34Z</time>
      </trkpt>
      <trkpt lat="43.58143" lon="3.35042">
        <ele>194.963318</ele>
        <time>2008-11-23T08:57:51Z</time>
      </trkpt>
      <trkpt lat="43.58141" lon="3.35004">
        <ele>198.531174</ele>
        <time>2008-11-23T08:58:11Z</time>
      </trkpt>
      <trkpt lat="43.58135" lon="3.34954">
        <ele>203.113495</ele>
        <time>2008-11-23T08:58:33Z</time>
      </trkpt>
      <trkpt lat="43.5813" lon="3.34883">
        <ele>209.197815</ele>
        <time>2008-11-23T08:58:56Z</time>
      </trkpt>
      <trkpt lat="43.58111" lon="3.34789">
        <ele>213.618622</ele>
        <time>2008-11-23T08:59:24Z</time>
      </trkpt>
      <trkpt lat="43.581" lon="3.34768">
        <ele>216.564026</ele>
        <time>2008-11-23T08:59:31Z</time>
      </trkpt>
      <trkpt lat="43.58092" lon="3.34778">
        <ele>216.110855</ele>
        <time>2008-11-23T08:59:37Z</time>
      </trkpt>
      <trkpt lat="43.58098" lon="3.34871">
        <ele>209.219482</ele>
        <time>2008-11-23T08:59:52Z</time>
      </trkpt>
      <trkpt lat="43.58085" lon="3.34939">
        <ele>210.442505</ele>
        <time>2008-11-23T09:00:06Z</time>
      </trkpt>
      <trkpt lat="43.58064" lon="3.34999">
        <ele>215.030212</ele>
        <time>2008-11-23T09:00:23Z</time>
      </trkpt>
      <trkpt lat="43.58032" lon="3.35062">
        <ele>220.744293</ele>
        <time>2008-11-23T09:00:41Z</time>
      </trkpt>
      <trkpt lat="43.58021" lon="3.3504">
        <ele>224.302628</ele>
        <time>2008-11-23T09:00:49Z</time>
      </trkpt>
      <trkpt lat="43.58019" lon="3.34991">
        <ele>225.876236</ele>
        <time>2008-11-23T09:01:06Z</time>
      </trkpt>
      <trkpt lat="43.58002" lon="3.34924">
        <ele>226.774704</ele>
        <time>2008-11-23T09:01:25Z</time>
      </trkpt>
      <trkpt lat="43.58" lon="3.34864">
        <ele>227.495605</ele>
        <time>2008-11-23T09:01:40Z</time>
      </trkpt>
      <trkpt lat="43.58004" lon="3.3478">
        <ele>233.87738</ele>
        <time>2008-11-23T09:01:58Z</time>
      </trkpt>
      <trkpt lat="43.58008" lon="3.34723">
        <ele>238.892685</ele>
        <time>2008-11-23T09:02:12Z</time>
      </trkpt>
      <trkpt lat="43.58002" lon="3.34652">
        <ele>245.86705</ele>
        <time>2008-11-23T09:02:31Z</time>
      </trkpt>
      <trkpt lat="43.57987" lon="3.34551">
        <ele>253.765701</ele>
        <time>2008-11-23T09:03:02Z</time>
      </trkpt>
      <trkpt lat="43.57972" lon="3.34486">
        <ele>260.173248</ele>
        <time>2008-11-23T09:03:27Z</time>
      </trkpt>
      <trkpt lat="43.57967" lon="3.34418">
        <ele>262.771698</ele>
        <time>2008-11-23T09:03:52Z</time>
      </trkpt>
      <trkpt lat="43.5798" lon="3.34326">
        <ele>266.0578</ele>
        <time>2008-11-23T09:04:26Z</time>
      </trkpt>
      <trkpt lat="43.58002" lon="3.34278">
        <ele>271.778381</ele>
        <time>2008-11-23T09:04:46Z</time>
      </trkpt>
      <trkpt lat="43.58032" lon="3.3425">
        <ele>280.459991</ele>
        <time>2008-11-23T09:05:03Z</time>
      </trkpt>
      <trkpt lat="43.58083" lon="3.34231">
        <ele>292.058807</ele>
        <time>2008-11-23T09:05:24Z</time>
      </trkpt>
      <trkpt lat="43.58109" lon="3.34235">
        <ele>296.574371</ele>
        <time>2008-11-23T09:05:34Z</time>
      </trkpt>
      <trkpt lat="43.58113" lon="3.34248">
        <ele>295.115417</ele>
        <time>2008-11-23T09:05:39Z</time>
      </trkpt>
      <trkpt lat="43.58124" lon="3.34315">
        <ele>289.092499</ele>
        <time>2008-11-23T09:06:01Z</time>
      </trkpt>
      <trkpt lat="43.58141" lon="3.34366">
        <ele>293.034607</ele>
        <time>2008-11-23T09:06:20Z</time>
      </trkpt>
      <trkpt lat="43.58171" lon="3.34414">
        <ele>299.029053</ele>
        <time>2008-11-23T09:06:41Z</time>
      </trkpt>
      <trkpt lat="43.58206" lon="3.34454">
        <ele>302.632813</ele>
        <time>2008-11-23T09:07:02Z</time>
      </trkpt>
      <trkpt lat="43.58248" lon="3.34465">
        <ele>308.152649</ele>
        <time>2008-11-23T09:07:22Z</time>
      </trkpt>
      <trkpt lat="43.58287" lon="3.3445">
        <ele>311.522736</ele>
        <time>2008-11-23T09:07:41Z</time>
      </trkpt>
      <trkpt lat="43.58281" lon="3.34431">
        <ele>314.93576</ele>
        <time>2008-11-23T09:07:50Z</time>
      </trkpt>
      <trkpt lat="43.58251" lon="3.34405">
        <ele>318.900635</ele>
        <time>2008-11-23T09:08:07Z</time>
      </trkpt>
      <trkpt lat="43.58229" lon="3.34347">
        <ele>322.549988</ele>
        <time>2008-11-23T09:08:26Z</time>
      </trkpt>
      <trkpt lat="43.58223" lon="3.34274">
        <ele>325.573883</ele>
        <time>2008-11-23T09:08:45Z</time>
      </trkpt>
      <trkpt lat="43.58229" lon="3.34199">
        <ele>328.483917</ele>
        <time>2008-11-23T09:09:05Z</time>
      </trkpt>
      <trkpt lat="43.58253" lon="3.34152">
        <ele>335.483643</ele>
        <time>2008-11-23T09:09:23Z</time>
      </trkpt>
      <trkpt lat="43.58274" lon="3.34105">
        <ele>341.268799</ele>
        <time>2008-11-23T09:09:40Z</time>
      </trkpt>
      <trkpt lat="43.58285" lon="3.34051">
        <ele>345.695007</ele>
        <time>2008-11-23T09:09:57Z</time>
      </trkpt>
      <trkpt lat="43.58244" lon="3.34017">
        <ele>345.428131</ele>
        <time>2008-11-23T09:10:14Z</time>
      </trkpt>
      <trkpt lat="43.5821" lon="3.3395">
        <ele>346.333344</ele>
        <time>2008-11-23T09:10:34Z</time>
      </trkpt>
      <trkpt lat="43.58218" lon="3.33877">
        <ele>349.878143</ele>
        <time>2008-11-23T09:10:51Z</time>
      </trkpt>
      <trkpt lat="43.58244" lon="3.33806">
        <ele>355.542175</ele>
        <time>2008-11-23T09:11:10Z</time>
      </trkpt>
      <trkpt lat="43.58248" lon="3.33729">
        <ele>357.741272</ele>
        <time>2008-11-23T09:11:27Z</time>
      </trkpt>
      <trkpt lat="43.58251" lon="3.3365">
        <ele>360.511688</ele>
        <time>2008-11-23T09:11:45Z</time>
      </trkpt>
      <trkpt lat="43.58279" lon="3.33575">
        <ele>362.604187</ele>
        <time>2008-11-23T09:12:03Z</time>
      </trkpt>
      <trkpt lat="43.58296" lon="3.33484">
        <ele>360.33905</ele>
        <time>2008-11-23T09:12:18Z</time>
      </trkpt>
      <trkpt lat="43.58296" lon="3.33461">
        <ele>360.391815</ele>
        <time>2008-11-23T09:12:27Z</time>
      </trkpt>
      <trkpt lat="43.583" lon="3.33426">
        <ele>360.050568</ele>
        <time>2008-11-23T09:13:28Z</time>
      </trkpt>
      <trkpt lat="43.58315" lon="3.33326">
        <ele>358.537323</ele>
        <time>2008-11-23T09:13:42Z</time>
      </trkpt>
      <trkpt lat="43.58313" lon="3.33242">
        <ele>356.932495</ele>
        <time>2008-11-23T09:13:51Z</time>
      </trkpt>
      <trkpt lat="43.5833" lon="3.33171">
        <ele>353.087494</ele>
        <time>2008-11-23T09:13:59Z</time>
      </trkpt>
      <trkpt lat="43.58332" lon="3.33126">
        <ele>351.855011</ele>
        <time>2008-11-23T09:14:04Z</time>
      </trkpt>
      <trkpt lat="43.58328" lon="3.33109">
        <ele>352.502502</ele>
        <time>2008-11-23T09:14:06Z</time>
      </trkpt>
      <trkpt lat="43.5833" lon="3.33062">
        <ele>350.688293</ele>
        <time>2008-11-23T09:14:11Z</time>
      </trkpt>
      <trkpt lat="43.58334" lon="3.33042">
        <ele>349.805267</ele>
        <time>2008-11-23T09:14:13Z</time>
      </trkpt>
      <trkpt lat="43.58349" lon="3.32995">
        <ele>346.592926</ele>
        <time>2008-11-23T09:14:18Z</time>
      </trkpt>
      <trkpt lat="43.58354" lon="3.32884">
        <ele>345.21463</ele>
        <time>2008-11-23T09:14:30Z</time>
      </trkpt>
      <trkpt lat="43.58336" lon="3.32836">
        <ele>348.295166</ele>
        <time>2008-11-23T09:14:40Z</time>
      </trkpt>
      <trkpt lat="43.58285" lon="3.32798">
        <ele>349.940399</ele>
        <time>2008-11-23T09:14:55Z</time>
      </trkpt>
      <trkpt lat="43.58253" lon="3.32776">
        <ele>348.629547</ele>
        <time>2008-11-23T09:15:04Z</time>
      </trkpt>
      <trkpt lat="43.58238" lon="3.32748">
        <ele>347.816559</ele>
        <time>2008-11-23T09:15:10Z</time>
      </trkpt>
      <trkpt lat="43.58233" lon="3.32665">
        <ele>350.677032</ele>
        <time>2008-11-23T09:15:26Z</time>
      </trkpt>
      <trkpt lat="43.58244" lon="3.32587">
        <ele>357.858307</ele>
        <time>2008-11-23T09:15:45Z</time>
      </trkpt>
      <trkpt lat="43.58248" lon="3.32527">
        <ele>361.688141</ele>
        <time>2008-11-23T09:16:00Z</time>
      </trkpt>
      <trkpt lat="43.58246" lon="3.32465">
        <ele>362.040009</ele>
        <time>2008-11-23T09:16:15Z</time>
      </trkpt>
      <trkpt lat="43.58279" lon="3.32424">
        <ele>364.767273</ele>
        <time>2008-11-23T09:16:31Z</time>
      </trkpt>
      <trkpt lat="43.5833" lon="3.32394">
        <ele>367.521088</ele>
        <time>2008-11-23T09:16:51Z</time>
      </trkpt>
      <trkpt lat="43.58377" lon="3.32399">
        <ele>375.431396</ele>
        <time>2008-11-23T09:17:09Z</time>
      </trkpt>
      <trkpt lat="43.58418" lon="3.32373">
        <ele>379.610016</ele>
        <time>2008-11-23T09:17:26Z</time>
      </trkpt>
      <trkpt lat="43.58469" lon="3.32328">
        <ele>382.786316</ele>
        <time>2008-11-23T09:17:48Z</time>
      </trkpt>
      <trkpt lat="43.58508" lon="3.32272">
        <ele>385.36499</ele>
        <time>2008-11-23T09:18:07Z</time>
      </trkpt>
      <trkpt lat="43.58527" lon="3.32208">
        <ele>387.671509</ele>
        <time>2008-11-23T09:18:23Z</time>
      </trkpt>
      <trkpt lat="43.58506" lon="3.32169">
        <ele>387.247742</ele>
        <time>2008-11-23T09:18:32Z</time>
      </trkpt>
      <trkpt lat="43.58502" lon="3.32158">
        <ele>387.696259</ele>
        <time>2008-11-23T09:18:34Z</time>
      </trkpt>
      <trkpt lat="43.58493" lon="3.32137">
        <ele>388.574371</ele>
        <time>2008-11-23T09:18:38Z</time>
      </trkpt>
      <trkpt lat="43.58493" lon="3.32118">
        <ele>389.763</ele>
        <time>2008-11-23T09:18:41Z</time>
      </trkpt>
      <trkpt lat="43.58489" lon="3.321">
        <ele>390.457825</ele>
        <time>2008-11-23T09:18:44Z</time>
      </trkpt>
      <trkpt lat="43.58465" lon="3.32083">
        <ele>389.935638</ele>
        <time>2008-11-23T09:18:51Z</time>
      </trkpt>
      <trkpt lat="43.5845" lon="3.32081">
        <ele>389.053711</ele>
        <time>2008-11-23T09:18:57Z</time>
      </trkpt>
      <trkpt lat="43.58446" lon="3.32072">
        <ele>388.966187</ele>
        <time>2008-11-23T09:19:01Z</time>
      </trkpt>
      <trkpt lat="43.58487" lon="3.32025">
        <ele>393.206757</ele>
        <time>2008-11-23T09:19:18Z</time>
      </trkpt>
      <trkpt lat="43.58497" lon="3.31985">
        <ele>394.587433</ele>
        <time>2008-11-23T09:19:27Z</time>
      </trkpt>
      <trkpt lat="43.58487" lon="3.31972">
        <ele>393.763611</ele>
        <time>2008-11-23T09:19:31Z</time>
      </trkpt>
      <trkpt lat="43.58478" lon="3.3195">
        <ele>391.876648</ele>
        <time>2008-11-23T09:19:36Z</time>
      </trkpt>
      <trkpt lat="43.58478" lon="3.31867">
        <ele>386.602722</ele>
        <time>2008-11-23T09:19:50Z</time>
      </trkpt>
      <trkpt lat="43.58474" lon="3.31798">
        <ele>381.81015</ele>
        <time>2008-11-23T09:19:59Z</time>
      </trkpt>
      <trkpt lat="43.58476" lon="3.31787">
        <ele>382.368011</ele>
        <time>2008-11-23T09:20:01Z</time>
      </trkpt>
      <trkpt lat="43.58478" lon="3.31776">
        <ele>382.864044</ele>
        <time>2008-11-23T09:20:03Z</time>
      </trkpt>
      <trkpt lat="43.58463" lon="3.31746">
        <ele>380.223755</ele>
        <time>2008-11-23T09:20:09Z</time>
      </trkpt>
      <trkpt lat="43.58437" lon="3.31736">
        <ele>374.543854</ele>
        <time>2008-11-23T09:20:15Z</time>
      </trkpt>
      <trkpt lat="43.58418" lon="3.31731">
        <ele>369.283752</ele>
        <time>2008-11-23T09:20:19Z</time>
      </trkpt>
      <trkpt lat="43.58399" lon="3.3171">
        <ele>367.494141</ele>
        <time>2008-11-23T09:20:25Z</time>
      </trkpt>
      <trkpt lat="43.58399" lon="3.31701">
        <ele>368.231171</ele>
        <time>2008-11-23T09:20:27Z</time>
      </trkpt>
      <trkpt lat="43.58379" lon="3.3168">
        <ele>363.181915</ele>
        <time>2008-11-23T09:20:33Z</time>
      </trkpt>
      <trkpt lat="43.58371" lon="3.31667">
        <ele>361.408447</ele>
        <time>2008-11-23T09:20:36Z</time>
      </trkpt>
      <trkpt lat="43.58371" lon="3.31656">
        <ele>361.950714</ele>
        <time>2008-11-23T09:20:38Z</time>
      </trkpt>
      <trkpt lat="43.58388" lon="3.3163">
        <ele>364.464294</ele>
        <time>2008-11-23T09:20:43Z</time>
      </trkpt>
      <trkpt lat="43.58388" lon="3.31615">
        <ele>362.021057</ele>
        <time>2008-11-23T09:20:45Z</time>
      </trkpt>
      <trkpt lat="43.58412" lon="3.3157">
        <ele>360.894684</ele>
        <time>2008-11-23T09:20:52Z</time>
      </trkpt>
      <trkpt lat="43.58427" lon="3.31538">
        <ele>356.902283</ele>
        <time>2008-11-23T09:20:56Z</time>
      </trkpt>
      <trkpt lat="43.5848" lon="3.31377">
        <ele>344.970001</ele>
        <time>2008-11-23T09:21:12Z</time>
      </trkpt>
      <trkpt lat="43.58495" lon="3.31332">
        <ele>346.769836</ele>
        <time>2008-11-23T09:21:23Z</time>
      </trkpt>
      <trkpt lat="43.58534" lon="3.31255">
        <ele>360.256989</ele>
        <time>2008-11-23T09:21:53Z</time>
      </trkpt>
      <trkpt lat="43.58542" lon="3.31221">
        <ele>362.611755</ele>
        <time>2008-11-23T09:22:02Z</time>
      </trkpt>
      <trkpt lat="43.58545" lon="3.31216">
        <ele>363.286346</ele>
        <time>2008-11-23T09:22:04Z</time>
      </trkpt>
      <trkpt lat="43.58547" lon="3.31163">
        <ele>362.785431</ele>
        <time>2008-11-23T09:22:17Z</time>
      </trkpt>
      <trkpt lat="43.58538" lon="3.31137">
        <ele>361.635559</ele>
        <time>2008-11-23T09:22:23Z</time>
      </trkpt>
      <trkpt lat="43.58502" lon="3.31088">
        <ele>361.252411</ele>
        <time>2008-11-23T09:22:38Z</time>
      </trkpt>
      <trkpt lat="43.58497" lon="3.31034">
        <ele>362.977386</ele>
        <time>2008-11-23T09:22:54Z</time>
      </trkpt>
      <trkpt lat="43.58493" lon="3.3094">
        <ele>365.848755</ele>
        <time>2008-11-23T09:23:20Z</time>
      </trkpt>
      <trkpt lat="43.58489" lon="3.30905">
        <ele>369.622498</ele>
        <time>2008-11-23T09:23:30Z</time>
      </trkpt>
      <trkpt lat="43.58497" lon="3.30888">
        <ele>373.347595</ele>
        <time>2008-11-23T09:23:37Z</time>
      </trkpt>
      <trkpt lat="43.58532" lon="3.30856">
        <ele>377.880127</ele>
        <time>2008-11-23T09:23:53Z</time>
      </trkpt>
      <trkpt lat="43.5856" lon="3.30815">
        <ele>380.12439</ele>
        <time>2008-11-23T09:24:03Z</time>
      </trkpt>
      <trkpt lat="43.58572" lon="3.30822">
        <ele>380.675629</ele>
        <time>2008-11-23T09:24:07Z</time>
      </trkpt>
      <trkpt lat="43.58577" lon="3.30867">
        <ele>377.395447</ele>
        <time>2008-11-23T09:24:15Z</time>
      </trkpt>
      <trkpt lat="43.58618" lon="3.30976">
        <ele>372.898163</ele>
        <time>2008-11-23T09:24:34Z</time>
      </trkpt>
      <trkpt lat="43.5863" lon="3.30993">
        <ele>372.681396</ele>
        <time>2008-11-23T09:24:38Z</time>
      </trkpt>
      <trkpt lat="43.58667" lon="3.30967">
        <ele>375.524384</ele>
        <time>2008-11-23T09:24:51Z</time>
      </trkpt>
      <trkpt lat="43.58753" lon="3.30877">
        <ele>390.730988</ele>
        <time>2008-11-23T09:25:19Z</time>
      </trkpt>
      <trkpt lat="43.58811" lon="3.30776">
        <ele>394.033752</ele>
        <time>2008-11-23T09:25:45Z</time>
      </trkpt>
      <trkpt lat="43.58845" lon="3.30678">
        <ele>398.286926</ele>
        <time>2008-11-23T09:26:08Z</time>
      </trkpt>
      <trkpt lat="43.58851" lon="3.30607">
        <ele>400.732788</ele>
        <time>2008-11-23T09:26:22Z</time>
      </trkpt>
      <trkpt lat="43.5886" lon="3.30504">
        <ele>404.309998</ele>
        <time>2008-11-23T09:26:42Z</time>
      </trkpt>
      <trkpt lat="43.58849" lon="3.30427">
        <ele>407.380249</ele>
        <time>2008-11-23T09:26:58Z</time>
      </trkpt>
      <trkpt lat="43.58804" lon="3.30375">
        <ele>409.446655</ele>
        <time>2008-11-23T09:27:15Z</time>
      </trkpt>
      <trkpt lat="43.58787" lon="3.30362">
        <ele>412.27124</ele>
        <time>2008-11-23T09:27:21Z</time>
      </trkpt>
      <trkpt lat="43.58776" lon="3.30324">
        <ele>412.679779</ele>
        <time>2008-11-23T09:27:31Z</time>
      </trkpt>
      <trkpt lat="43.58763" lon="3.30259">
        <ele>412.257874</ele>
        <time>2008-11-23T09:27:47Z</time>
      </trkpt>
      <trkpt lat="43.58725" lon="3.30189">
        <ele>415.453888</ele>
        <time>2008-11-23T09:28:09Z</time>
      </trkpt>
      <trkpt lat="43.5868" lon="3.30158">
        <ele>419.66449</ele>
        <time>2008-11-23T09:28:27Z</time>
      </trkpt>
      <trkpt lat="43.58643" lon="3.30133">
        <ele>424.032867</ele>
        <time>2008-11-23T09:28:42Z</time>
      </trkpt>
      <trkpt lat="43.58639" lon="3.30094">
        <ele>425.732544</ele>
        <time>2008-11-23T09:28:52Z</time>
      </trkpt>
      <trkpt lat="43.58656" lon="3.30051">
        <ele>427.854523</ele>
        <time>2008-11-23T09:29:04Z</time>
      </trkpt>
      <trkpt lat="43.58744" lon="3.30006">
        <ele>431.463562</ele>
        <time>2008-11-23T09:29:35Z</time>
      </trkpt>
      <trkpt lat="43.58746" lon="3.30006">
        <ele>431.31601</ele>
        <time>2008-11-23T09:29:36Z</time>
      </trkpt>
      <trkpt lat="43.58776" lon="3.29946">
        <ele>434.732513</ele>
        <time>2008-11-23T09:29:53Z</time>
      </trkpt>
      <trkpt lat="43.5877" lon="3.2988">
        <ele>434.27121</ele>
        <time>2008-11-23T09:30:10Z</time>
      </trkpt>
      <trkpt lat="43.58729" lon="3.29877">
        <ele>437.030151</ele>
        <time>2008-11-23T09:30:23Z</time>
      </trkpt>
      <trkpt lat="43.58665" lon="3.2988">
        <ele>438.725006</ele>
        <time>2008-11-23T09:30:44Z</time>
      </trkpt>
      <trkpt lat="43.58618" lon="3.2989">
        <ele>444.254089</ele>
        <time>2008-11-23T09:30:59Z</time>
      </trkpt>
      <trkpt lat="43.58615" lon="3.29892">
        <ele>444.640167</ele>
        <time>2008-11-23T09:31:00Z</time>
      </trkpt>
      <trkpt lat="43.58618" lon="3.29927">
        <ele>444.932465</ele>
        <time>2008-11-23T09:31:08Z</time>
      </trkpt>
      <trkpt lat="43.5859" lon="3.29942">
        <ele>447.674713</ele>
        <time>2008-11-23T09:31:19Z</time>
      </trkpt>
      <trkpt lat="43.5857" lon="3.30004">
        <ele>445.998749</ele>
        <time>2008-11-23T09:31:34Z</time>
      </trkpt>
      <trkpt lat="43.58527" lon="3.30101">
        <ele>444.392365</ele>
        <time>2008-11-23T09:31:52Z</time>
      </trkpt>
      <trkpt lat="43.58474" lon="3.30173">
        <ele>444.842133</ele>
        <time>2008-11-23T09:32:04Z</time>
      </trkpt>
      <trkpt lat="43.58401" lon="3.30212">
        <ele>446.584961</ele>
        <time>2008-11-23T09:32:17Z</time>
      </trkpt>
      <trkpt lat="43.58386" lon="3.30214">
        <ele>447.180603</ele>
        <time>2008-11-23T09:32:20Z</time>
      </trkpt>
      <trkpt lat="43.5833" lon="3.3024">
        <ele>440.177521</ele>
        <time>2008-11-23T09:32:28Z</time>
      </trkpt>
      <trkpt lat="43.58311" lon="3.30272">
        <ele>432.402863</ele>
        <time>2008-11-23T09:32:33Z</time>
      </trkpt>
      <trkpt lat="43.58298" lon="3.30307">
        <ele>427.665192</ele>
        <time>2008-11-23T09:32:38Z</time>
      </trkpt>
      <trkpt lat="43.58296" lon="3.30467">
        <ele>422.305267</ele>
        <time>2008-11-23T09:32:56Z</time>
      </trkpt>
      <trkpt lat="43.58302" lon="3.30549">
        <ele>423.308289</ele>
        <time>2008-11-23T09:33:09Z</time>
      </trkpt>
      <trkpt lat="43.58268" lon="3.30684">
        <ele>417.374664</ele>
        <time>2008-11-23T09:33:30Z</time>
      </trkpt>
      <trkpt lat="43.58227" lon="3.30742">
        <ele>410.117004</ele>
        <time>2008-11-23T09:33:38Z</time>
      </trkpt>
      <trkpt lat="43.58152" lon="3.30772">
        <ele>399.029602</ele>
        <time>2008-11-23T09:33:47Z</time>
      </trkpt>
      <trkpt lat="43.58148" lon="3.30774">
        <ele>398.526459</ele>
        <time>2008-11-23T09:33:48Z</time>
      </trkpt>
      <trkpt lat="43.58135" lon="3.30753">
        <ele>395.201935</ele>
        <time>2008-11-23T09:33:56Z</time>
      </trkpt>
      <trkpt lat="43.58122" lon="3.30755">
        <ele>392.889343</ele>
        <time>2008-11-23T09:33:59Z</time>
      </trkpt>
      <trkpt lat="43.58085" lon="3.30772">
        <ele>388.972961</ele>
        <time>2008-11-23T09:34:08Z</time>
      </trkpt>
      <trkpt lat="43.58075" lon="3.30779">
        <ele>387.671936</ele>
        <time>2008-11-23T09:34:22Z</time>
      </trkpt>
      <trkpt lat="43.58051" lon="3.30802">
        <ele>384.64325</ele>
        <time>2008-11-23T09:34:30Z</time>
      </trkpt>
      <trkpt lat="43.58034" lon="3.30815">
        <ele>382.299591</ele>
        <time>2008-11-23T09:34:33Z</time>
      </trkpt>
      <trkpt lat="43.58021" lon="3.30826">
        <ele>381.013885</ele>
        <time>2008-11-23T09:34:35Z</time>
      </trkpt>
      <trkpt lat="43.58" lon="3.30849">
        <ele>375.514374</ele>
        <time>2008-11-23T09:34:39Z</time>
      </trkpt>
      <trkpt lat="43.57989" lon="3.30875">
        <ele>370.446503</ele>
        <time>2008-11-23T09:34:42Z</time>
      </trkpt>
      <trkpt lat="43.57957" lon="3.30944">
        <ele>366.19635</ele>
        <time>2008-11-23T09:34:51Z</time>
      </trkpt>
      <trkpt lat="43.57927" lon="3.3112">
        <ele>365.058685</ele>
        <time>2008-11-23T09:35:12Z</time>
      </trkpt>
      <trkpt lat="43.57922" lon="3.31152">
        <ele>364.450409</ele>
        <time>2008-11-23T09:35:16Z</time>
      </trkpt>
      <trkpt lat="43.57912" lon="3.31173">
        <ele>365.281586</ele>
        <time>2008-11-23T09:35:19Z</time>
      </trkpt>
      <trkpt lat="43.57873" lon="3.31244">
        <ele>364.710144</ele>
        <time>2008-11-23T09:35:29Z</time>
      </trkpt>
      <trkpt lat="43.57867" lon="3.31257">
        <ele>364.291962</ele>
        <time>2008-11-23T09:35:31Z</time>
      </trkpt>
      <trkpt lat="43.57794" lon="3.31356">
        <ele>354.334839</ele>
        <time>2008-11-23T09:35:46Z</time>
      </trkpt>
      <trkpt lat="43.57772" lon="3.31379">
        <ele>353.007111</ele>
        <time>2008-11-23T09:35:53Z</time>
      </trkpt>
      <trkpt lat="43.57768" lon="3.31379">
        <ele>353.014252</ele>
        <time>2008-11-23T09:36:08Z</time>
      </trkpt>
      <trkpt lat="43.57761" lon="3.31379">
        <ele>353.026611</ele>
        <time>2008-11-23T09:36:44Z</time>
      </trkpt>
      <trkpt lat="43.57736" lon="3.31377">
        <ele>352.857117</ele>
        <time>2008-11-23T09:36:49Z</time>
      </trkpt>
      <trkpt lat="43.57678" lon="3.3136">
        <ele>350.904053</ele>
        <time>2008-11-23T09:37:00Z</time>
      </trkpt>
      <trkpt lat="43.5763" lon="3.31367">
        <ele>350.719666</ele>
        <time>2008-11-23T09:37:12Z</time>
      </trkpt>
      <trkpt lat="43.57506" lon="3.31388">
        <ele>345.673889</ele>
        <time>2008-11-23T09:37:38Z</time>
      </trkpt>
      <trkpt lat="43.57461" lon="3.31416">
        <ele>345.015503</ele>
        <time>2008-11-23T09:37:51Z</time>
      </trkpt>
      <trkpt lat="43.57431" lon="3.31452">
        <ele>343.96756</ele>
        <time>2008-11-23T09:38:03Z</time>
      </trkpt>
      <trkpt lat="43.57427" lon="3.31461">
        <ele>343.790619</ele>
        <time>2008-11-23T09:38:16Z</time>
      </trkpt>
      <trkpt lat="43.57414" lon="3.31463">
        <ele>341.424957</ele>
        <time>2008-11-23T09:39:21Z</time>
      </trkpt>
      <trkpt lat="43.57405" lon="3.31467">
        <ele>339.916077</ele>
        <time>2008-11-23T09:42:16Z</time>
      </trkpt>
      <trkpt lat="43.57403" lon="3.31465">
        <ele>339.322205</ele>
        <time>2008-11-23T09:42:37Z</time>
      </trkpt>
      <trkpt lat="43.57403" lon="3.31465">
        <ele>339.322205</ele>
        <time>2008-11-23T09:42:43Z</time>
      </trkpt>
      <trkpt lat="43.57397" lon="3.31465">
        <ele>337.991211</ele>
        <time>2008-11-23T09:42:46Z</time>
      </trkpt>
      <trkpt lat="43.57392" lon="3.31452">
        <ele>336.37149</ele>
        <time>2008-11-23T09:42:49Z</time>
      </trkpt>
      <trkpt lat="43.57388" lon="3.31442">
        <ele>334.902344</ele>
        <time>2008-11-23T09:42:51Z</time>
      </trkpt>
      <trkpt lat="43.57364" lon="3.31397">
        <ele>329.723755</ele>
        <time>2008-11-23T09:42:58Z</time>
      </trkpt>
      <trkpt lat="43.57276" lon="3.31388">
        <ele>325.147491</ele>
        <time>2008-11-23T09:43:11Z</time>
      </trkpt>
      <trkpt lat="43.57128" lon="3.31364">
        <ele>313.362488</ele>
        <time>2008-11-23T09:43:35Z</time>
      </trkpt>
      <trkpt lat="43.57053" lon="3.31296">
        <ele>302.323944</ele>
        <time>2008-11-23T09:43:51Z</time>
      </trkpt>
      <trkpt lat="43.57045" lon="3.31289">
        <ele>300.422607</ele>
        <time>2008-11-23T09:43:53Z</time>
      </trkpt>
      <trkpt lat="43.57" lon="3.31255">
        <ele>286.000183</ele>
        <time>2008-11-23T09:44:04Z</time>
      </trkpt>
      <trkpt lat="43.56987" lon="3.31249">
        <ele>281.824646</ele>
        <time>2008-11-23T09:44:07Z</time>
      </trkpt>
      <trkpt lat="43.5697" lon="3.31244">
        <ele>276.997864</ele>
        <time>2008-11-23T09:44:11Z</time>
      </trkpt>
      <trkpt lat="43.56946" lon="3.31266">
        <ele>277.024292</ele>
        <time>2008-11-23T09:44:16Z</time>
      </trkpt>
      <trkpt lat="43.5691" lon="3.31304">
        <ele>280.750122</ele>
        <time>2008-11-23T09:44:25Z</time>
      </trkpt>
      <trkpt lat="43.56892" lon="3.31315">
        <ele>281.225677</ele>
        <time>2008-11-23T09:44:29Z</time>
      </trkpt>
      <trkpt lat="43.56789" lon="3.31352">
        <ele>292.18042</ele>
        <time>2008-11-23T09:44:52Z</time>
      </trkpt>
      <trkpt lat="43.56654" lon="3.31401">
        <ele>282.387512</ele>
        <time>2008-11-23T09:45:25Z</time>
      </trkpt>
      <trkpt lat="43.56628" lon="3.31414">
        <ele>278.752502</ele>
        <time>2008-11-23T09:45:31Z</time>
      </trkpt>
      <trkpt lat="43.56622" lon="3.31407">
        <ele>277.985016</ele>
        <time>2008-11-23T09:45:35Z</time>
      </trkpt>
      <trkpt lat="43.56601" lon="3.31403">
        <ele>275.183746</ele>
        <time>2008-11-23T09:45:42Z</time>
      </trkpt>
      <trkpt lat="43.56543" lon="3.31399">
        <ele>269.477509</ele>
        <time>2008-11-23T09:46:00Z</time>
      </trkpt>
      <trkpt lat="43.56437" lon="3.31375">
        <ele>276.50238</ele>
        <time>2008-11-23T09:46:26Z</time>
      </trkpt>
      <trkpt lat="43.56397" lon="3.31358">
        <ele>279.779694</ele>
        <time>2008-11-23T09:46:38Z</time>
      </trkpt>
      <trkpt lat="43.5638" lon="3.31341">
        <ele>278.886505</ele>
        <time>2008-11-23T09:46:54Z</time>
      </trkpt>
      <trkpt lat="43.56375" lon="3.31334">
        <ele>278.360229</ele>
        <time>2008-11-23T09:47:06Z</time>
      </trkpt>
      <trkpt lat="43.56356" lon="3.31309">
        <ele>278.012604</ele>
        <time>2008-11-23T09:47:21Z</time>
      </trkpt>
      <trkpt lat="43.56298" lon="3.31266">
        <ele>280.513824</ele>
        <time>2008-11-23T09:47:48Z</time>
      </trkpt>
      <trkpt lat="43.56225" lon="3.31193">
        <ele>271.332855</ele>
        <time>2008-11-23T09:48:12Z</time>
      </trkpt>
      <trkpt lat="43.56116" lon="3.31045">
        <ele>260.41156</ele>
        <time>2008-11-23T09:48:48Z</time>
      </trkpt>
      <trkpt lat="43.56109" lon="3.3104">
        <ele>261.901764</ele>
        <time>2008-11-23T09:48:50Z</time>
      </trkpt>
      <trkpt lat="43.56094" lon="3.31047">
        <ele>261.660767</ele>
        <time>2008-11-23T09:48:58Z</time>
      </trkpt>
      <trkpt lat="43.56081" lon="3.31051">
        <ele>261.975983</ele>
        <time>2008-11-23T09:49:03Z</time>
      </trkpt>
      <trkpt lat="43.5604" lon="3.31051">
        <ele>265.545074</ele>
        <time>2008-11-23T09:49:18Z</time>
      </trkpt>
      <trkpt lat="43.56017" lon="3.31051">
        <ele>267.995361</ele>
        <time>2008-11-23T09:49:26Z</time>
      </trkpt>
      <trkpt lat="43.56013" lon="3.31064">
        <ele>267.438263</ele>
        <time>2008-11-23T09:49:33Z</time>
      </trkpt>
      <trkpt lat="43.56013" lon="3.31163">
        <ele>260.527985</ele>
        <time>2008-11-23T09:49:57Z</time>
      </trkpt>
      <trkpt lat="43.56028" lon="3.31268">
        <ele>257.3479</ele>
        <time>2008-11-23T09:50:23Z</time>
      </trkpt>
      <trkpt lat="43.56036" lon="3.31409">
        <ele>252.11322</ele>
        <time>2008-11-23T09:50:52Z</time>
      </trkpt>
      <trkpt lat="43.5603" lon="3.31517">
        <ele>242.342484</ele>
        <time>2008-11-23T09:51:11Z</time>
      </trkpt>
      <trkpt lat="43.56019" lon="3.31525">
        <ele>245.022842</ele>
        <time>2008-11-23T09:51:13Z</time>
      </trkpt>
      <trkpt lat="43.56006" lon="3.31534">
        <ele>248.178162</ele>
        <time>2008-11-23T09:51:15Z</time>
      </trkpt>
      <trkpt lat="43.56013" lon="3.31562">
        <ele>242.949997</ele>
        <time>2008-11-23T09:51:21Z</time>
      </trkpt>
      <trkpt lat="43.56008" lon="3.31648">
        <ele>239.787567</ele>
        <time>2008-11-23T09:51:38Z</time>
      </trkpt>
      <trkpt lat="43.56008" lon="3.31654">
        <ele>239.717346</ele>
        <time>2008-11-23T09:51:39Z</time>
      </trkpt>
      <trkpt lat="43.56019" lon="3.31663">
        <ele>236.299744</ele>
        <time>2008-11-23T09:51:44Z</time>
      </trkpt>
      <trkpt lat="43.5603" lon="3.31669">
        <ele>233.097244</ele>
        <time>2008-11-23T09:51:47Z</time>
      </trkpt>
      <trkpt lat="43.56064" lon="3.31695">
        <ele>223.912018</ele>
        <time>2008-11-23T09:51:55Z</time>
      </trkpt>
      <trkpt lat="43.56075" lon="3.31742">
        <ele>223.92984</ele>
        <time>2008-11-23T09:52:02Z</time>
      </trkpt>
      <trkpt lat="43.56088" lon="3.31766">
        <ele>223.264862</ele>
        <time>2008-11-23T09:52:06Z</time>
      </trkpt>
      <trkpt lat="43.56118" lon="3.31809">
        <ele>217.447433</ele>
        <time>2008-11-23T09:52:14Z</time>
      </trkpt>
      <trkpt lat="43.56124" lon="3.31819">
        <ele>215.795914</ele>
        <time>2008-11-23T09:52:16Z</time>
      </trkpt>
      <trkpt lat="43.56146" lon="3.31864">
        <ele>210.324081</ele>
        <time>2008-11-23T09:52:26Z</time>
      </trkpt>
      <trkpt lat="43.56161" lon="3.31862">
        <ele>206.975128</ele>
        <time>2008-11-23T09:52:38Z</time>
      </trkpt>
      <trkpt lat="43.56165" lon="3.31867">
        <ele>206.078964</ele>
        <time>2008-11-23T09:52:42Z</time>
      </trkpt>
      <trkpt lat="43.5618" lon="3.31888">
        <ele>202.950378</ele>
        <time>2008-11-23T09:52:52Z</time>
      </trkpt>
      <trkpt lat="43.56186" lon="3.31905">
        <ele>201.615601</ele>
        <time>2008-11-23T09:52:55Z</time>
      </trkpt>
      <trkpt lat="43.56195" lon="3.31922">
        <ele>199.98735</ele>
        <time>2008-11-23T09:53:02Z</time>
      </trkpt>
      <trkpt lat="43.56197" lon="3.31935">
        <ele>199.576843</ele>
        <time>2008-11-23T09:53:07Z</time>
      </trkpt>
      <trkpt lat="43.56197" lon="3.31965">
        <ele>199.486343</ele>
        <time>2008-11-23T09:53:20Z</time>
      </trkpt>
      <trkpt lat="43.56219" lon="3.32002">
        <ele>196.131256</ele>
        <time>2008-11-23T09:53:39Z</time>
      </trkpt>
      <trkpt lat="43.56229" lon="3.32017">
        <ele>194.436249</ele>
        <time>2008-11-23T09:53:42Z</time>
      </trkpt>
      <trkpt lat="43.56244" lon="3.32038">
        <ele>192.052505</ele>
        <time>2008-11-23T09:53:46Z</time>
      </trkpt>
      <trkpt lat="43.56251" lon="3.32055">
        <ele>190.996689</ele>
        <time>2008-11-23T09:53:49Z</time>
      </trkpt>
      <trkpt lat="43.56264" lon="3.3213">
        <ele>188.404251</ele>
        <time>2008-11-23T09:54:00Z</time>
      </trkpt>
      <trkpt lat="43.5627" lon="3.32163">
        <ele>186.663284</ele>
        <time>2008-11-23T09:54:05Z</time>
      </trkpt>
      <trkpt lat="43.56277" lon="3.32167">
        <ele>184.673187</ele>
        <time>2008-11-23T09:54:09Z</time>
      </trkpt>
      <trkpt lat="43.56281" lon="3.32163">
        <ele>183.361786</ele>
        <time>2008-11-23T09:54:11Z</time>
      </trkpt>
      <trkpt lat="43.56287" lon="3.32169">
        <ele>181.377563</ele>
        <time>2008-11-23T09:54:22Z</time>
      </trkpt>
      <trkpt lat="43.56287" lon="3.32169">
        <ele>181.377563</ele>
        <time>2008-11-23T09:54:23Z</time>
      </trkpt>
      <trkpt lat="43.56292" lon="3.32171">
        <ele>181.348099</ele>
        <time>2008-11-23T09:54:25Z</time>
      </trkpt>
      <trkpt lat="43.56298" lon="3.3218">
        <ele>181.751083</ele>
        <time>2008-11-23T09:54:29Z</time>
      </trkpt>
      <trkpt lat="43.56326" lon="3.32242">
        <ele>179.072601</ele>
        <time>2008-11-23T09:54:46Z</time>
      </trkpt>
      <trkpt lat="43.56358" lon="3.32287">
        <ele>181.827713</ele>
        <time>2008-11-23T09:55:00Z</time>
      </trkpt>
      <trkpt lat="43.5639" lon="3.32313">
        <ele>184.110748</ele>
        <time>2008-11-23T09:55:12Z</time>
      </trkpt>
      <trkpt lat="43.56455" lon="3.32302">
        <ele>196.170151</ele>
        <time>2008-11-23T09:55:28Z</time>
      </trkpt>
      <trkpt lat="43.5653" lon="3.32296">
        <ele>200.088257</ele>
        <time>2008-11-23T09:55:48Z</time>
      </trkpt>
      <trkpt lat="43.56579" lon="3.32261">
        <ele>204.646408</ele>
        <time>2008-11-23T09:56:03Z</time>
      </trkpt>
      <trkpt lat="43.56641" lon="3.32195">
        <ele>206.300873</ele>
        <time>2008-11-23T09:56:26Z</time>
      </trkpt>
      <trkpt lat="43.56661" lon="3.32165">
        <ele>208.220383</ele>
        <time>2008-11-23T09:56:46Z</time>
      </trkpt>
      <trkpt lat="43.56682" lon="3.32109">
        <ele>213.244064</ele>
        <time>2008-11-23T09:57:20Z</time>
      </trkpt>
      <trkpt lat="43.56734" lon="3.32064">
        <ele>216.782181</ele>
        <time>2008-11-23T09:57:51Z</time>
      </trkpt>
      <trkpt lat="43.56787" lon="3.32019">
        <ele>222.947113</ele>
        <time>2008-11-23T09:58:23Z</time>
      </trkpt>
      <trkpt lat="43.56845" lon="3.31972">
        <ele>231.676636</ele>
        <time>2008-11-23T09:58:58Z</time>
      </trkpt>
      <trkpt lat="43.56899" lon="3.31912">
        <ele>241.202652</ele>
        <time>2008-11-23T09:59:38Z</time>
      </trkpt>
      <trkpt lat="43.56937" lon="3.31832">
        <ele>251.67308</ele>
        <time>2008-11-23T10:00:14Z</time>
      </trkpt>
      <trkpt lat="43.5695" lon="3.31768">
        <ele>254.037125</ele>
        <time>2008-11-23T10:00:46Z</time>
      </trkpt>
      <trkpt lat="43.5697" lon="3.31693">
        <ele>256.22644</ele>
        <time>2008-11-23T10:01:21Z</time>
      </trkpt>
      <trkpt lat="43.56993" lon="3.31622">
        <ele>262.082825</ele>
        <time>2008-11-23T10:01:57Z</time>
      </trkpt>
      <trkpt lat="43.57028" lon="3.31564">
        <ele>267.19989</ele>
        <time>2008-11-23T10:02:27Z</time>
      </trkpt>
      <trkpt lat="43.57075" lon="3.31519">
        <ele>274.235687</ele>
        <time>2008-11-23T10:03:00Z</time>
      </trkpt>
      <trkpt lat="43.57079" lon="3.31515">
        <ele>274.870422</ele>
        <time>2008-11-23T10:03:04Z</time>
      </trkpt>
      <trkpt lat="43.57111" lon="3.3151">
        <ele>280.614136</ele>
        <time>2008-11-23T10:03:26Z</time>
      </trkpt>
      <trkpt lat="43.57139" lon="3.31504">
        <ele>286.628235</ele>
        <time>2008-11-23T10:03:45Z</time>
      </trkpt>
      <trkpt lat="43.57173" lon="3.31491">
        <ele>296.2677</ele>
        <time>2008-11-23T10:04:10Z</time>
      </trkpt>
      <trkpt lat="43.57212" lon="3.3148">
        <ele>306.367218</ele>
        <time>2008-11-23T10:04:41Z</time>
      </trkpt>
      <trkpt lat="43.57249" lon="3.3148">
        <ele>313.22876</ele>
        <time>2008-11-23T10:05:12Z</time>
      </trkpt>
      <trkpt lat="43.57255" lon="3.3148">
        <ele>313.990997</ele>
        <time>2008-11-23T10:05:18Z</time>
      </trkpt>
      <trkpt lat="43.5727" lon="3.31476">
        <ele>315.820221</ele>
        <time>2008-11-23T10:05:27Z</time>
      </trkpt>
      <trkpt lat="43.57261" lon="3.31487">
        <ele>314.712982</ele>
        <time>2008-11-23T10:05:35Z</time>
      </trkpt>
      <trkpt lat="43.57246" lon="3.31491">
        <ele>312.943298</ele>
        <time>2008-11-23T10:05:43Z</time>
      </trkpt>
      <trkpt lat="43.57184" lon="3.31555">
        <ele>312.079376</ele>
        <time>2008-11-23T10:06:15Z</time>
      </trkpt>
      <trkpt lat="43.57182" lon="3.31562">
        <ele>313.103821</ele>
        <time>2008-11-23T10:06:18Z</time>
      </trkpt>
      <trkpt lat="43.57171" lon="3.31598">
        <ele>313.945007</ele>
        <time>2008-11-23T10:06:38Z</time>
      </trkpt>
      <trkpt lat="43.57171" lon="3.31603">
        <ele>314.36499</ele>
        <time>2008-11-23T10:06:40Z</time>
      </trkpt>
      <trkpt lat="43.57163" lon="3.31658">
        <ele>314.82251</ele>
        <time>2008-11-23T10:07:00Z</time>
      </trkpt>
      <trkpt lat="43.57176" lon="3.31733">
        <ele>317.607513</ele>
        <time>2008-11-23T10:07:30Z</time>
      </trkpt>
      <trkpt lat="43.57188" lon="3.31761">
        <ele>318.920227</ele>
        <time>2008-11-23T10:07:47Z</time>
      </trkpt>
      <trkpt lat="43.57221" lon="3.31783">
        <ele>320.644409</ele>
        <time>2008-11-23T10:09:16Z</time>
      </trkpt>
      <trkpt lat="43.5727" lon="3.31824">
        <ele>321.030487</ele>
        <time>2008-11-23T10:09:36Z</time>
      </trkpt>
      <trkpt lat="43.573" lon="3.31877">
        <ele>320.25</ele>
        <time>2008-11-23T10:09:52Z</time>
      </trkpt>
      <trkpt lat="43.57306" lon="3.31886">
        <ele>320.592499</ele>
        <time>2008-11-23T10:09:54Z</time>
      </trkpt>
      <trkpt lat="43.57326" lon="3.31884">
        <ele>324.187347</ele>
        <time>2008-11-23T10:09:59Z</time>
      </trkpt>
      <trkpt lat="43.57364" lon="3.31862">
        <ele>330.40625</ele>
        <time>2008-11-23T10:10:15Z</time>
      </trkpt>
      <trkpt lat="43.57405" lon="3.31849">
        <ele>334.443756</ele>
        <time>2008-11-23T10:10:31Z</time>
      </trkpt>
      <trkpt lat="43.57418" lon="3.31873">
        <ele>332.9505</ele>
        <time>2008-11-23T10:10:42Z</time>
      </trkpt>
      <trkpt lat="43.57424" lon="3.31882">
        <ele>331.825012</ele>
        <time>2008-11-23T10:11:02Z</time>
      </trkpt>
      <trkpt lat="43.57435" lon="3.31903">
        <ele>329.378754</ele>
        <time>2008-11-23T10:11:07Z</time>
      </trkpt>
      <trkpt lat="43.57452" lon="3.31948">
        <ele>324.726563</ele>
        <time>2008-11-23T10:11:20Z</time>
      </trkpt>
      <trkpt lat="43.57482" lon="3.3203">
        <ele>312.630341</ele>
        <time>2008-11-23T10:11:45Z</time>
      </trkpt>
      <trkpt lat="43.57508" lon="3.32077">
        <ele>302.460114</ele>
        <time>2008-11-23T10:12:05Z</time>
      </trkpt>
      <trkpt lat="43.57497" lon="3.3215">
        <ele>296.790436</ele>
        <time>2008-11-23T10:12:19Z</time>
      </trkpt>
      <trkpt lat="43.57497" lon="3.32156">
        <ele>295.573944</ele>
        <time>2008-11-23T10:12:20Z</time>
      </trkpt>
      <trkpt lat="43.5747" lon="3.32193">
        <ele>295.499207</ele>
        <time>2008-11-23T10:12:28Z</time>
      </trkpt>
      <trkpt lat="43.57474" lon="3.32195">
        <ele>293.820831</ele>
        <time>2008-11-23T10:12:56Z</time>
      </trkpt>
      <trkpt lat="43.5745" lon="3.32203">
        <ele>296.617493</ele>
        <time>2008-11-23T10:13:14Z</time>
      </trkpt>
      <trkpt lat="43.57448" lon="3.32206">
        <ele>296.32605</ele>
        <time>2008-11-23T10:13:24Z</time>
      </trkpt>
      <trkpt lat="43.57414" lon="3.32214">
        <ele>298.955811</ele>
        <time>2008-11-23T10:13:39Z</time>
      </trkpt>
      <trkpt lat="43.57358" lon="3.32225">
        <ele>296.50647</ele>
        <time>2008-11-23T10:14:00Z</time>
      </trkpt>
      <trkpt lat="43.57334" lon="3.32236">
        <ele>292.311646</ele>
        <time>2008-11-23T10:14:07Z</time>
      </trkpt>
      <trkpt lat="43.57313" lon="3.32229">
        <ele>291.060455</ele>
        <time>2008-11-23T10:14:11Z</time>
      </trkpt>
      <trkpt lat="43.57238" lon="3.32231">
        <ele>278.637451</ele>
        <time>2008-11-23T10:14:25Z</time>
      </trkpt>
      <trkpt lat="43.57186" lon="3.32244">
        <ele>268.910492</ele>
        <time>2008-11-23T10:14:40Z</time>
      </trkpt>
      <trkpt lat="43.57182" lon="3.3224">
        <ele>267.84375</ele>
        <time>2008-11-23T10:14:51Z</time>
      </trkpt>
      <trkpt lat="43.5718" lon="3.32231">
        <ele>266.65625</ele>
        <time>2008-11-23T10:15:03Z</time>
      </trkpt>
      <trkpt lat="43.57173" lon="3.32223">
        <ele>264.518738</ele>
        <time>2008-11-23T10:15:20Z</time>
      </trkpt>
      <trkpt lat="43.57167" lon="3.32225">
        <ele>263.274994</ele>
        <time>2008-11-23T10:15:26Z</time>
      </trkpt>
      <trkpt lat="43.57126" lon="3.32257">
        <ele>257.015015</ele>
        <time>2008-11-23T10:15:39Z</time>
      </trkpt>
      <trkpt lat="43.57043" lon="3.32298">
        <ele>244.048599</ele>
        <time>2008-11-23T10:16:03Z</time>
      </trkpt>
      <trkpt lat="43.56961" lon="3.32351">
        <ele>229.551315</ele>
        <time>2008-11-23T10:16:26Z</time>
      </trkpt>
      <trkpt lat="43.56922" lon="3.32379">
        <ele>219.233719</ele>
        <time>2008-11-23T10:16:40Z</time>
      </trkpt>
      <trkpt lat="43.56888" lon="3.32427">
        <ele>210.283249</ele>
        <time>2008-11-23T10:16:58Z</time>
      </trkpt>
      <trkpt lat="43.56905" lon="3.32512">
        <ele>199.850006</ele>
        <time>2008-11-23T10:17:31Z</time>
      </trkpt>
      <trkpt lat="43.56914" lon="3.32523">
        <ele>198.651245</ele>
        <time>2008-11-23T10:17:37Z</time>
      </trkpt>
      <trkpt lat="43.56965" lon="3.32577">
        <ele>198.247559</ele>
        <time>2008-11-23T10:17:58Z</time>
      </trkpt>
      <trkpt lat="43.56948" lon="3.32592">
        <ele>199.788971</ele>
        <time>2008-11-23T10:18:09Z</time>
      </trkpt>
      <trkpt lat="43.5695" lon="3.32592">
        <ele>199.844437</ele>
        <time>2008-11-23T10:18:28Z</time>
      </trkpt>
      <trkpt lat="43.56972" lon="3.3259">
        <ele>199.674713</ele>
        <time>2008-11-23T10:18:43Z</time>
      </trkpt>
      <trkpt lat="43.56995" lon="3.32581">
        <ele>198.374634</ele>
        <time>2008-11-23T10:18:57Z</time>
      </trkpt>
      <trkpt lat="43.57023" lon="3.32594">
        <ele>202.7379</ele>
        <time>2008-11-23T10:19:15Z</time>
      </trkpt>
      <trkpt lat="43.57049" lon="3.32615">
        <ele>210.471832</ele>
        <time>2008-11-23T10:19:34Z</time>
      </trkpt>
      <trkpt lat="43.57058" lon="3.32581">
        <ele>206.737732</ele>
        <time>2008-11-23T10:19:48Z</time>
      </trkpt>
      <trkpt lat="43.57088" lon="3.32564">
        <ele>211.008469</ele>
        <time>2008-11-23T10:20:04Z</time>
      </trkpt>
      <trkpt lat="43.57148" lon="3.32534">
        <ele>217.387543</ele>
        <time>2008-11-23T10:20:38Z</time>
      </trkpt>
      <trkpt lat="43.57167" lon="3.32525">
        <ele>219.098755</ele>
        <time>2008-11-23T10:20:50Z</time>
      </trkpt>
      <trkpt lat="43.57171" lon="3.32532">
        <ele>222.440735</ele>
        <time>2008-11-23T10:20:55Z</time>
      </trkpt>
      <trkpt lat="43.57167" lon="3.32542">
        <ele>225.222473</ele>
        <time>2008-11-23T10:21:00Z</time>
      </trkpt>
      <trkpt lat="43.57161" lon="3.32545">
        <ele>224.244995</ele>
        <time>2008-11-23T10:21:04Z</time>
      </trkpt>
      <trkpt lat="43.57128" lon="3.32575">
        <ele>224.705948</ele>
        <time>2008-11-23T10:21:28Z</time>
      </trkpt>
      <trkpt lat="43.57098" lon="3.32639">
        <ele>229.360001</ele>
        <time>2008-11-23T10:22:03Z</time>
      </trkpt>
      <trkpt lat="43.57107" lon="3.32705">
        <ele>238.444214</ele>
        <time>2008-11-23T10:22:27Z</time>
      </trkpt>
      <trkpt lat="43.57103" lon="3.32761">
        <ele>239.665222</ele>
        <time>2008-11-23T10:22:47Z</time>
      </trkpt>
      <trkpt lat="43.57094" lon="3.32819">
        <ele>241.499222</ele>
        <time>2008-11-23T10:23:06Z</time>
      </trkpt>
      <trkpt lat="43.57094" lon="3.32871">
        <ele>245.198624</ele>
        <time>2008-11-23T10:23:26Z</time>
      </trkpt>
      <trkpt lat="43.57094" lon="3.32871">
        <ele>245.198624</ele>
        <time>2008-11-23T10:23:27Z</time>
      </trkpt>
      <trkpt lat="43.571" lon="3.32866">
        <ele>245.287689</ele>
        <time>2008-11-23T10:23:32Z</time>
      </trkpt>
      <trkpt lat="43.57118" lon="3.3283">
        <ele>244.742691</ele>
        <time>2008-11-23T10:23:49Z</time>
      </trkpt>
      <trkpt lat="43.57131" lon="3.32793">
        <ele>245.17775</ele>
        <time>2008-11-23T10:24:05Z</time>
      </trkpt>
      <trkpt lat="43.57141" lon="3.32772">
        <ele>247.785294</ele>
        <time>2008-11-23T10:24:16Z</time>
      </trkpt>
      <trkpt lat="43.57154" lon="3.32802">
        <ele>248.117554</ele>
        <time>2008-11-23T10:24:26Z</time>
      </trkpt>
      <trkpt lat="43.57158" lon="3.32804">
        <ele>248.45787</ele>
        <time>2008-11-23T10:24:27Z</time>
      </trkpt>
      <trkpt lat="43.57165" lon="3.32811">
        <ele>248.470062</ele>
        <time>2008-11-23T10:24:29Z</time>
      </trkpt>
      <trkpt lat="43.57201" lon="3.32796">
        <ele>252.522247</ele>
        <time>2008-11-23T10:24:36Z</time>
      </trkpt>
      <trkpt lat="43.57236" lon="3.32793">
        <ele>254.98201</ele>
        <time>2008-11-23T10:24:41Z</time>
      </trkpt>
      <trkpt lat="43.5721" lon="3.32888">
        <ele>248.085602</ele>
        <time>2008-11-23T10:24:51Z</time>
      </trkpt>
      <trkpt lat="43.57206" lon="3.33034">
        <ele>245.475555</ele>
        <time>2008-11-23T10:25:03Z</time>
      </trkpt>
      <trkpt lat="43.57206" lon="3.33062">
        <ele>244.922424</ele>
        <time>2008-11-23T10:25:06Z</time>
      </trkpt>
      <trkpt lat="43.57231" lon="3.33111">
        <ele>246.898468</ele>
        <time>2008-11-23T10:25:14Z</time>
      </trkpt>
      <trkpt lat="43.57253" lon="3.33122">
        <ele>249.181931</ele>
        <time>2008-11-23T10:25:18Z</time>
      </trkpt>
      <trkpt lat="43.57264" lon="3.33165">
        <ele>246.740784</ele>
        <time>2008-11-23T10:25:25Z</time>
      </trkpt>
      <trkpt lat="43.57264" lon="3.3318">
        <ele>246.113388</ele>
        <time>2008-11-23T10:25:27Z</time>
      </trkpt>
      <trkpt lat="43.57268" lon="3.33266">
        <ele>248.387497</ele>
        <time>2008-11-23T10:25:37Z</time>
      </trkpt>
      <trkpt lat="43.57244" lon="3.33349">
        <ele>247.219604</ele>
        <time>2008-11-23T10:25:47Z</time>
      </trkpt>
      <trkpt lat="43.57231" lon="3.33461">
        <ele>242.223129</ele>
        <time>2008-11-23T10:25:58Z</time>
      </trkpt>
      <trkpt lat="43.57231" lon="3.33474">
        <ele>242.105453</ele>
        <time>2008-11-23T10:26:06Z</time>
      </trkpt>
      <trkpt lat="43.57231" lon="3.33476">
        <ele>242.079636</ele>
        <time>2008-11-23T10:26:28Z</time>
      </trkpt>
      <trkpt lat="43.57229" lon="3.33482">
        <ele>241.382492</ele>
        <time>2008-11-23T10:35:32Z</time>
      </trkpt>
      <trkpt lat="43.57227" lon="3.33482">
        <ele>240.622498</ele>
        <time>2008-11-23T10:35:55Z</time>
      </trkpt>
      <trkpt lat="43.57223" lon="3.33491">
        <ele>239.422501</ele>
        <time>2008-11-23T10:35:59Z</time>
      </trkpt>
      <trkpt lat="43.57221" lon="3.33499">
        <ele>238.942505</ele>
        <time>2008-11-23T10:36:02Z</time>
      </trkpt>
      <trkpt lat="43.57184" lon="3.33575">
        <ele>226.731323</ele>
        <time>2008-11-23T10:36:13Z</time>
      </trkpt>
      <trkpt lat="43.57188" lon="3.33641">
        <ele>223.231247</ele>
        <time>2008-11-23T10:36:19Z</time>
      </trkpt>
      <trkpt lat="43.57199" lon="3.3369">
        <ele>220.527634</ele>
        <time>2008-11-23T10:36:23Z</time>
      </trkpt>
      <trkpt lat="43.57206" lon="3.33714">
        <ele>218.361008</ele>
        <time>2008-11-23T10:36:25Z</time>
      </trkpt>
      <trkpt lat="43.57261" lon="3.33832">
        <ele>209.264008</ele>
        <time>2008-11-23T10:36:35Z</time>
      </trkpt>
      <trkpt lat="43.57255" lon="3.33892">
        <ele>203.128479</ele>
        <time>2008-11-23T10:36:41Z</time>
      </trkpt>
      <trkpt lat="43.57242" lon="3.33896">
        <ele>202.687042</ele>
        <time>2008-11-23T10:36:43Z</time>
      </trkpt>
      <trkpt lat="43.57216" lon="3.33907">
        <ele>202.778809</ele>
        <time>2008-11-23T10:36:47Z</time>
      </trkpt>
      <trkpt lat="43.57178" lon="3.3392">
        <ele>204.828995</ele>
        <time>2008-11-23T10:36:53Z</time>
      </trkpt>
      <trkpt lat="43.57156" lon="3.33937">
        <ele>209.067825</ele>
        <time>2008-11-23T10:36:57Z</time>
      </trkpt>
      <trkpt lat="43.57124" lon="3.33944">
        <ele>211.571716</ele>
        <time>2008-11-23T10:37:03Z</time>
      </trkpt>
      <trkpt lat="43.57109" lon="3.33939">
        <ele>210.345825</ele>
        <time>2008-11-23T10:37:06Z</time>
      </trkpt>
      <trkpt lat="43.57051" lon="3.33974">
        <ele>211.496979</ele>
        <time>2008-11-23T10:37:21Z</time>
      </trkpt>
      <trkpt lat="43.5703" lon="3.33991">
        <ele>210.620804</ele>
        <time>2008-11-23T10:37:26Z</time>
      </trkpt>
      <trkpt lat="43.57017" lon="3.34021">
        <ele>212.437805</ele>
        <time>2008-11-23T10:37:30Z</time>
      </trkpt>
      <trkpt lat="43.57002" lon="3.34079">
        <ele>211.783722</ele>
        <time>2008-11-23T10:37:41Z</time>
      </trkpt>
      <trkpt lat="43.57004" lon="3.34102">
        <ele>213.829407</ele>
        <time>2008-11-23T10:37:46Z</time>
      </trkpt>
      <trkpt lat="43.57" lon="3.34113">
        <ele>212.656174</ele>
        <time>2008-11-23T10:37:48Z</time>
      </trkpt>
      <trkpt lat="43.56997" lon="3.34126">
        <ele>212.358902</ele>
        <time>2008-11-23T10:37:50Z</time>
      </trkpt>
      <trkpt lat="43.56985" lon="3.34242">
        <ele>208.391251</ele>
        <time>2008-11-23T10:38:05Z</time>
      </trkpt>
      <trkpt lat="43.56976" lon="3.34287">
        <ele>204.966248</ele>
        <time>2008-11-23T10:38:10Z</time>
      </trkpt>
      <trkpt lat="43.56982" lon="3.34321">
        <ele>206.315231</ele>
        <time>2008-11-23T10:38:15Z</time>
      </trkpt>
      <trkpt lat="43.57004" lon="3.34364">
        <ele>215.342819</ele>
        <time>2008-11-23T10:38:27Z</time>
      </trkpt>
      <trkpt lat="43.57006" lon="3.34373">
        <ele>216.854996</ele>
        <time>2008-11-23T10:38:29Z</time>
      </trkpt>
      <trkpt lat="43.56989" lon="3.34416">
        <ele>217.442001</ele>
        <time>2008-11-23T10:38:45Z</time>
      </trkpt>
      <trkpt lat="43.56982" lon="3.34424">
        <ele>217.642395</ele>
        <time>2008-11-23T10:38:49Z</time>
      </trkpt>
      <trkpt lat="43.56948" lon="3.34437">
        <ele>214.734634</ele>
        <time>2008-11-23T10:39:04Z</time>
      </trkpt>
      <trkpt lat="43.56927" lon="3.34491">
        <ele>216.688187</ele>
        <time>2008-11-23T10:39:21Z</time>
      </trkpt>
      <trkpt lat="43.56918" lon="3.34551">
        <ele>221.141815</ele>
        <time>2008-11-23T10:39:36Z</time>
      </trkpt>
      <trkpt lat="43.56914" lon="3.34557">
        <ele>221.601746</ele>
        <time>2008-11-23T10:39:38Z</time>
      </trkpt>
      <trkpt lat="43.5691" lon="3.34574">
        <ele>223.441788</ele>
        <time>2008-11-23T10:39:45Z</time>
      </trkpt>
      <trkpt lat="43.56912" lon="3.34615">
        <ele>228.90625</ele>
        <time>2008-11-23T10:40:00Z</time>
      </trkpt>
      <trkpt lat="43.56912" lon="3.34617">
        <ele>229.234375</ele>
        <time>2008-11-23T10:40:01Z</time>
      </trkpt>
      <trkpt lat="43.56914" lon="3.3463">
        <ele>230.730316</ele>
        <time>2008-11-23T10:40:08Z</time>
      </trkpt>
      <trkpt lat="43.56922" lon="3.34667">
        <ele>233.938004</ele>
        <time>2008-11-23T10:40:25Z</time>
      </trkpt>
      <trkpt lat="43.56931" lon="3.34692">
        <ele>233.6418</ele>
        <time>2008-11-23T10:40:38Z</time>
      </trkpt>
      <trkpt lat="43.5694" lon="3.3471">
        <ele>230.720306</ele>
        <time>2008-11-23T10:40:57Z</time>
      </trkpt>
      <trkpt lat="43.56948" lon="3.34772">
        <ele>231.408051</ele>
        <time>2008-11-23T10:41:23Z</time>
      </trkpt>
      <trkpt lat="43.56967" lon="3.34866">
        <ele>223.551651</ele>
        <time>2008-11-23T10:41:50Z</time>
      </trkpt>
      <trkpt lat="43.56982" lon="3.3492">
        <ele>217.737503</ele>
        <time>2008-11-23T10:42:03Z</time>
      </trkpt>
      <trkpt lat="43.56972" lon="3.34952">
        <ele>222.662354</ele>
        <time>2008-11-23T10:42:08Z</time>
      </trkpt>
      <trkpt lat="43.56961" lon="3.35008">
        <ele>218.756012</ele>
        <time>2008-11-23T10:42:17Z</time>
      </trkpt>
      <trkpt lat="43.56963" lon="3.35014">
        <ele>216.871185</ele>
        <time>2008-11-23T10:42:19Z</time>
      </trkpt>
      <trkpt lat="43.56967" lon="3.35021">
        <ele>214.311493</ele>
        <time>2008-11-23T10:42:21Z</time>
      </trkpt>
      <trkpt lat="43.56982" lon="3.35038">
        <ele>207.117477</ele>
        <time>2008-11-23T10:42:26Z</time>
      </trkpt>
      <trkpt lat="43.57019" lon="3.35062">
        <ele>193.570801</ele>
        <time>2008-11-23T10:42:39Z</time>
      </trkpt>
      <trkpt lat="43.57118" lon="3.35177">
        <ele>181.581711</ele>
        <time>2008-11-23T10:43:13Z</time>
      </trkpt>
      <trkpt lat="43.57178" lon="3.35248">
        <ele>181.695129</ele>
        <time>2008-11-23T10:43:36Z</time>
      </trkpt>
      <trkpt lat="43.57186" lon="3.35268">
        <ele>179.509094</ele>
        <time>2008-11-23T10:43:51Z</time>
      </trkpt>
      <trkpt lat="43.57208" lon="3.35315">
        <ele>171.639053</ele>
        <time>2008-11-23T10:44:01Z</time>
      </trkpt>
      <trkpt lat="43.57212" lon="3.35323">
        <ele>170.266602</ele>
        <time>2008-11-23T10:44:02Z</time>
      </trkpt>
      <trkpt lat="43.57216" lon="3.35345">
        <ele>168.394714</ele>
        <time>2008-11-23T10:44:05Z</time>
      </trkpt>
      <trkpt lat="43.57236" lon="3.35371">
        <ele>163.011749</ele>
        <time>2008-11-23T10:44:12Z</time>
      </trkpt>
      <trkpt lat="43.57253" lon="3.3539">
        <ele>157.93251</ele>
        <time>2008-11-23T10:44:16Z</time>
      </trkpt>
      <trkpt lat="43.57311" lon="3.35424">
        <ele>151.299942</ele>
        <time>2008-11-23T10:44:27Z</time>
      </trkpt>
      <trkpt lat="43.57409" lon="3.35446">
        <ele>134.392181</ele>
        <time>2008-11-23T10:44:44Z</time>
      </trkpt>
      <trkpt lat="43.57435" lon="3.35474">
        <ele>132.93338</ele>
        <time>2008-11-23T10:44:53Z</time>
      </trkpt>
      <trkpt lat="43.5747" lon="3.35519">
        <ele>129.934998</ele>
        <time>2008-11-23T10:45:06Z</time>
      </trkpt>
      <trkpt lat="43.57489" lon="3.35555">
        <ele>127.890251</ele>
        <time>2008-11-23T10:45:13Z</time>
      </trkpt>
      <trkpt lat="43.57491" lon="3.35564">
        <ele>127.555687</ele>
        <time>2008-11-23T10:45:14Z</time>
      </trkpt>
      <trkpt lat="43.57497" lon="3.35598">
        <ele>126.070206</ele>
        <time>2008-11-23T10:45:23Z</time>
      </trkpt>
      <trkpt lat="43.57512" lon="3.35624">
        <ele>121.091209</ele>
        <time>2008-11-23T10:45:35Z</time>
      </trkpt>
      <trkpt lat="43.57527" lon="3.35641">
        <ele>121.239876</ele>
        <time>2008-11-23T10:45:50Z</time>
      </trkpt>
      <trkpt lat="43.57536" lon="3.35649">
        <ele>121.909576</ele>
        <time>2008-11-23T10:45:52Z</time>
      </trkpt>
      <trkpt lat="43.57564" lon="3.3571">
        <ele>120.353531</ele>
        <time>2008-11-23T10:46:04Z</time>
      </trkpt>
      <trkpt lat="43.5759" lon="3.3578">
        <ele>123.131874</ele>
        <time>2008-11-23T10:46:18Z</time>
      </trkpt>
      <trkpt lat="43.57603" lon="3.35905">
        <ele>121.852501</ele>
        <time>2008-11-23T10:46:34Z</time>
      </trkpt>
      <trkpt lat="43.57603" lon="3.35913">
        <ele>121.592499</ele>
        <time>2008-11-23T10:46:35Z</time>
      </trkpt>
      <trkpt lat="43.5763" lon="3.36076">
        <ele>119.632469</ele>
        <time>2008-11-23T10:46:58Z</time>
      </trkpt>
      <trkpt lat="43.57663" lon="3.36186">
        <ele>119.633186</ele>
        <time>2008-11-23T10:47:14Z</time>
      </trkpt>
      <trkpt lat="43.57637" lon="3.36218">
        <ele>117.309998</ele>
        <time>2008-11-23T10:47:22Z</time>
      </trkpt>
      <trkpt lat="43.57583" lon="3.36287">
        <ele>113.029999</ele>
        <time>2008-11-23T10:47:33Z</time>
      </trkpt>
      <trkpt lat="43.57577" lon="3.3636">
        <ele>110.036247</ele>
        <time>2008-11-23T10:47:41Z</time>
      </trkpt>
      <trkpt lat="43.57573" lon="3.36373">
        <ele>109.313751</ele>
        <time>2008-11-23T10:47:50Z</time>
      </trkpt>
      <trkpt lat="43.57573" lon="3.36373">
        <ele>109.313751</ele>
        <time>2008-11-23T10:47:51Z</time>
      </trkpt>
      <trkpt lat="43.57568" lon="3.36377">
        <ele>109.008751</ele>
        <time>2008-11-23T10:47:56Z</time>
      </trkpt>
      <trkpt lat="43.57547" lon="3.36375">
        <ele>108.586563</ele>
        <time>2008-11-23T10:48:06Z</time>
      </trkpt>
      <trkpt lat="43.57433" lon="3.36358">
        <ele>104.831253</ele>
        <time>2008-11-23T10:48:26Z</time>
      </trkpt>
      <trkpt lat="43.57375" lon="3.36373">
        <ele>103.50721</ele>
        <time>2008-11-23T10:48:36Z</time>
      </trkpt>
      <trkpt lat="43.57304" lon="3.36355">
        <ele>102.150909</ele>
        <time>2008-11-23T10:48:49Z</time>
      </trkpt>
      <trkpt lat="43.57289" lon="3.36304">
        <ele>105.571274</ele>
        <time>2008-11-23T10:49:01Z</time>
      </trkpt>
      <trkpt lat="43.57287" lon="3.36302">
        <ele>105.60408</ele>
        <time>2008-11-23T10:49:12Z</time>
      </trkpt>
      <trkpt lat="43.57287" lon="3.36302">
        <ele>105.60408</ele>
        <time>2008-11-23T10:49:32Z</time>
      </trkpt>
    </trkseg>
  </trk>
</gpx>